MMUN

Cancun International Airport

Code ICAO MMUN
Code IATA CUN
Nom Cancun International Airport
Emplacement Cancun, Quintana-Roo, MX
Élévation 22 pieds / 6.7 mètres
Latitude 21.03650093
Longitude -86.87709808
METAR MMUN 240547Z 00000KT 7SM BKN015TCU BKN080 22/18 A3001 RMK SLP165 57008 967 8/260
Informations extras Afficher cartes et CFS
Afficher NOTAMS
Piste Longueur Largeur Surface Élévation
12L 9186 ft 148 ft ASP 22 ft
12R 11483 ft 197 ft ASP 20 ft
30R 9186 ft 148 ft ASP 18 ft
30L 11483 ft 197 ft ASP 18 ft